Terminal Aerodrome Forecast
Issued by NWS

Home | Current Version | Previous Version | Text Only | Print | Product List | Glossary Off
Versions: 1 2 3 4 5 6 7 8 9 10 11 12 13 14 15 16

000
FTUS43 KMPX 290500
TAFAXN
TAF
KAXN 290540Z 2906/3006 14008KT 2SM -DZ BR OVC002
     FM291500 21005KT 6SM BR BKN004 OVC025
     FM291800 27006KT P6SM BKN020 OVC090
     FM292100 36006KT P6SM SCT025 BKN120=

USA.gov is the U.S. government's official web portal to all federal, state and local government web resources and services.